Tropical Cyclones
[Index]
Main Index Home Page Stock Weather Photos Extreme Storms Discussion Storm News and Storm Chasing Reports Tropical Cyclones / Hurricanes / Typhoons Weather Data and Links Wild Fires / Bushfires Weather Observation Techniques Weather Picture Catalogue Tornado Pictures and Reports Stock Video Footage and DVDs for sale
Season 2013-2014 Tropical Cyclone HADI Track Map
Season 2013-2014 Summaries (Operational Data): [AU] [SIO] [SPAC] [SH]
<<- Previous TC | 2013-2014 Season | Next TC ->>

click for intensity scale information  Lat/long Grid: Show Hide

 Date Labels: Show Hide

Operational Tropical Cyclone Data : JTWC Advisories

Name: HADI
Number: 1419

03 Mar 2014 18:00 UTC to 13 Mar 2014 18:00 UTC

    date/time    lat    long     hPa   cat  kts
2014-03-03 18    8.5   154.3    1010         15          
2014-03-04 00    8.5   154.0    1010         15          
2014-03-04 06    9.5   153.3    1010         15          
2014-03-04 12    9.5   153.1    1010         15          
2014-03-04 18    9.5   152.9    1010         15          
2014-03-05 00   10.6   154.9    1010         15          
2014-03-05 06   11.0   154.5    1010         15          
2014-03-04 12   11.3   155.2    1004         15          
2014-03-05 18   11.6   154.3    1010         15          
2014-03-06 00   12.0   153.9    1004         20          
2014-03-06 06   12.4   152.8    1007         20          
2014-03-06 12   12.9   151.6    1004         20          
2014-03-06 18   13.5   151.2    1004         25          
2014-03-07 00   13.9   151.3    1000         30          
2014-03-07 06   14.4   151.1    1002         30          
2014-03-07 12   15.0   150.8    1002         30          
2014-03-07 18   15.4   150.3    1000         30          
2014-03-08 00   15.6   149.7    1000         30          
2014-03-08 06   16.2   149.7    1000         30          
2014-03-08 12   16.5   149.9    1004         25          
2014-03-08 18   16.8   150.1    1004         25          
2014-03-09 00   17.3   149.8    1004         25          
2014-03-09 06   17.6   149.8    1003         25          
2014-03-09 12   18.0   150.2    1002         25          
2014-03-09 18   18.4   150.5    1000         30          
2014-03-10 00   18.7   150.8    1000         30          
2014-03-10 06   18.9   151.2     996    1    35          
2014-03-10 12   18.8   151.5     996    1    35          
2014-03-10 18   18.3   151.4     996    1    35          
2014-03-11 00   17.8   151.2     996    1    35          
2014-03-11 06   17.5   151.4    1000         30          
2014-03-11 12   17.2   151.4    1000         30          
2014-03-11 18   16.7   153.3    1000         30          
2014-03-12 00   15.5   154.7    1002         30          
2014-03-12 06   14.8   156.8    1004         25          
2014-03-12 12   14.6   159.0    1004         25          
2014-03-12 18   13.9   161.1    1004         25          
2014-03-13 00   13.2   163.4    1004         25          
2014-03-13 06   12.1   165.3    1004         20          
2014-03-13 12   12.0   167.0    1003         20          
2014-03-13 18   12.0   168.9    1007         20          
Winds are 10-min average.

Tropical cyclone tracks developed by Michael Bath using operational warnings and advisories and Google Maps.


[Australian Severe Weather index] [Copyright Notice] [Email Contacts] [Search This Site] [Privacy Policy]
Document: tropical_cyclone_hadi.htm Updated: 2 May 2017